sensor_id;sensor_type;location;lat;lon;timestamp;pressure;altitude;pressure_sealevel;temperature;humidity
71567;BME280;59403;47.456;19.120;2023-05-01T01:06:20;100667.66;;;9.94;98.44
71567;BME280;59403;47.456;19.120;2023-05-01T01:09:01;100665.44;;;9.89;99.05
71567;BME280;59403;47.456;19.120;2023-05-01T01:11:38;100665.00;;;9.94;97.85
71567;BME280;59403;47.456;19.120;2023-05-01T01:14:10;100658.94;;;9.84;98.66
71567;BME280;59403;47.456;19.120;2023-05-01T01:16:45;100663.28;;;9.75;98.97
71567;BME280;59403;47.456;19.120;2023-05-01T01:22:23;100670.09;;;9.78;99.11
71567;BME280;59403;47.456;19.120;2023-05-01T01:25:10;100675.25;;;9.79;99.29
71567;BME280;59403;47.456;19.120;2023-05-01T01:28:09;100667.19;;;9.71;100.00
71567;BME280;59403;47.456;19.120;2023-05-01T01:31:08;100660.63;;;9.75;100.00
71567;BME280;59403;47.456;19.120;2023-05-01T01:33:54;100661.78;;;9.73;100.00
71567;BME280;59403;47.456;19.120;2023-05-01T01:36:33;100654.66;;;9.73;100.00
71567;BME280;59403;47.456;19.120;2023-05-01T01:39:09;100662.88;;;9.80;100.00
71567;BME280;59403;47.456;19.120;2023-05-01T01:41:39;100659.78;;;9.84;100.00
71567;BME280;59403;47.456;19.120;2023-05-01T01:44:16;100668.78;;;9.91;100.00
71567;BME280;59403;47.456;19.120;2023-05-01T01:46:47;100662.09;;;9.97;99.55
71567;BME280;59403;47.456;19.120;2023-05-01T01:49:20;100668.72;;;10.01;99.29
71567;BME280;59403;47.456;19.120;2023-05-01T01:51:50;100664.56;;;9.98;99.77
71567;BME280;59403;47.456;19.120;2023-05-01T01:54:22;100661.78;;;10.00;100.00
71567;BME280;59403;47.456;19.120;2023-05-01T01:56:52;100667.63;;;10.03;100.00
71567;BME280;59403;47.456;19.120;2023-05-01T01:59:22;100665.13;;;10.02;100.00
71567;BME280;59403;47.456;19.120;2023-05-01T02:01:50;100658.28;;;10.09;99.95
71567;BME280;59403;47.456;19.120;2023-05-01T02:04:21;100659.66;;;10.13;99.57
71567;BME280;59403;47.456;19.120;2023-05-01T02:06:49;100657.72;;;10.05;99.74
71567;BME280;59403;47.456;19.120;2023-05-01T02:09:19;100653.38;;;10.14;100.00
71567;BME280;59403;47.456;19.120;2023-05-01T02:11:48;100649.75;;;10.15;100.00
71567;BME280;59403;47.456;19.120;2023-05-01T02:14:17;100661.47;;;10.12;100.00
71567;BME280;59403;47.456;19.120;2023-05-01T02:16:46;100661.31;;;10.14;100.00
71567;BME280;59403;47.456;19.120;2023-05-01T02:19:14;100658.53;;;10.15;99.69
71567;BME280;59403;47.456;19.120;2023-05-01T02:21:43;100653.69;;;10.01;100.00
71567;BME280;59403;47.456;19.120;2023-05-01T02:24:11;100662.34;;;9.94;100.00
71567;BME280;59403;47.456;19.120;2023-05-01T02:26:41;100657.03;;;10.03;100.00
71567;BME280;59403;47.456;19.120;2023-05-01T02:29:09;100657.75;;;9.96;100.00
71567;BME280;59403;47.456;19.120;2023-05-01T02:31:36;100655.56;;;9.91;100.00
71567;BME280;59403;47.456;19.120;2023-05-01T02:34:03;100653.31;;;9.96;100.00
71567;BME280;59403;47.456;19.120;2023-05-01T02:36:29;100652.53;;;9.86;100.00
71567;BME280;59403;47.456;19.120;2023-05-01T02:38:59;100662.25;;;9.86;100.00
71567;BME280;59403;47.456;19.120;2023-05-01T02:41:26;100658.69;;;9.68;100.00
71567;BME280;59403;47.456;19.120;2023-05-01T02:43:57;100660.63;;;9.75;100.00
71567;BME280;59403;47.456;19.120;2023-05-01T02:46:26;100663.97;;;9.77;100.00
71567;BME280;59403;47.456;19.120;2023-05-01T02:48:54;100662.72;;;9.81;100.00
71567;BME280;59403;47.456;19.120;2023-05-01T02:51:23;100664.75;;;9.87;100.00
71567;BME280;59403;47.456;19.120;2023-05-01T02:53:50;100657.91;;;9.94;100.00
71567;BME280;59403;47.456;19.120;2023-05-01T02:56:20;100662.50;;;9.92;100.00
71567;BME280;59403;47.456;19.120;2023-05-01T02:58:47;100662.25;;;9.95;100.00
71567;BME280;59403;47.456;19.120;2023-05-01T03:01:14;100662.47;;;10.02;100.00
71567;BME280;59403;47.456;19.120;2023-05-01T03:03:41;100669.81;;;10.08;100.00
71567;BME280;59403;47.456;19.120;2023-05-01T03:06:08;100672.59;;;10.16;100.00
71567;BME280;59403;47.456;19.120;2023-05-01T03:08:35;100669.50;;;10.20;100.00
71567;BME280;59403;47.456;19.120;2023-05-01T03:11:04;100672.53;;;10.25;100.00
71567;BME280;59403;47.456;19.120;2023-05-01T03:13:32;100671.72;;;10.25;100.00
71567;BME280;59403;47.456;19.120;2023-05-01T03:15:59;100678.06;;;10.32;100.00
71567;BME280;59403;47.456;19.120;2023-05-01T03:18:26;100678.22;;;10.30;100.00
71567;BME280;59403;47.456;19.120;2023-05-01T03:20:53;100684.50;;;10.29;100.00
71567;BME280;59403;47.456;19.120;2023-05-01T03:23:21;100673.59;;;10.32;100.00
71567;BME280;59403;47.456;19.120;2023-05-01T03:25:48;100679.75;;;10.33;100.00
71567;BME280;59403;47.456;19.120;2023-05-01T03:28:15;100679.59;;;10.35;100.00
71567;BME280;59403;47.456;19.120;2023-05-01T03:30:44;100682.00;;;10.28;100.00
71567;BME280;59403;47.456;19.120;2023-05-01T03:33:11;100688.03;;;10.20;100.00
71567;BME280;59403;47.456;19.120;2023-05-01T03:35:38;100685.28;;;10.12;100.00
71567;BME280;59403;47.456;19.120;2023-05-01T03:38:05;100684.59;;;10.10;100.00
71567;BME280;59403;47.456;19.120;2023-05-01T03:40:32;100682.94;;;10.00;100.00
71567;BME280;59403;47.456;19.120;2023-05-01T03:42:59;100687.69;;;9.96;100.00
71567;BME280;59403;47.456;19.120;2023-05-01T03:45:26;100692.19;;;9.86;100.00
71567;BME280;59403;47.456;19.120;2023-05-01T03:47:54;100691.81;;;9.81;100.00
71567;BME280;59403;47.456;19.120;2023-05-01T03:50:21;100689.00;;;9.83;100.00
71567;BME280;59403;47.456;19.120;2023-05-01T03:52:48;100687.78;;;9.77;100.00
71567;BME280;59403;47.456;19.120;2023-05-01T03:55:15;100685.69;;;9.71;100.00
71567;BME280;59403;47.456;19.120;2023-05-01T03:57:42;100685.16;;;9.68;100.00
71567;BME280;59403;47.456;19.120;2023-05-01T04:00:12;100681.41;;;9.70;100.00
71567;BME280;59403;47.456;19.120;2023-05-01T04:02:39;100689.62;;;9.67;100.00
71567;BME280;59403;47.456;19.120;2023-05-01T04:05:08;100693.22;;;9.66;100.00
71567;BME280;59403;47.456;19.120;2023-05-01T04:07:35;100690.59;;;9.66;100.00
71567;BME280;59403;47.456;19.120;2023-05-01T04:10:02;100694.75;;;9.69;100.00
71567;BME280;59403;47.456;19.120;2023-05-01T04:12:31;100693.78;;;9.70;100.00
71567;BME280;59403;47.456;19.120;2023-05-01T04:14:58;100693.06;;;9.77;100.00
71567;BME280;59403;47.456;19.120;2023-05-01T04:17:25;100689.88;;;9.74;100.00
71567;BME280;59403;47.456;19.120;2023-05-01T04:19:52;100689.03;;;9.73;100.00
71567;BME280;59403;47.456;19.120;2023-05-01T04:22:21;100690.56;;;9.76;100.00
71567;BME280;59403;47.456;19.120;2023-05-01T04:24:48;100695.56;;;9.79;100.00
71567;BME280;59403;47.456;19.120;2023-05-01T04:27:15;100706.38;;;9.85;100.00
71567;BME280;59403;47.456;19.120;2023-05-01T04:29:44;100693.72;;;9.89;100.00
71567;BME280;59403;47.456;19.120;2023-05-01T04:32:11;100706.22;;;9.96;100.00
71567;BME280;59403;47.456;19.120;2023-05-01T04:34:38;100699.81;;;9.99;100.00
71567;BME280;59403;47.456;19.120;2023-05-01T04:37:04;100693.78;;;10.06;100.00
71567;BME280;59403;47.456;19.120;2023-05-01T04:39:35;100703.81;;;10.12;100.00
71567;BME280;59403;47.456;19.120;2023-05-01T04:42:02;100701.25;;;10.20;100.00
71567;BME280;59403;47.456;19.120;2023-05-01T04:44:29;100709.50;;;10.45;100.00
71567;BME280;59403;47.456;19.120;2023-05-01T04:46:59;100706.25;;;10.51;100.00
71567;BME280;59403;47.456;19.120;2023-05-01T04:49:26;100715.88;;;10.69;99.06
71567;BME280;59403;47.456;19.120;2023-05-01T04:51:53;100712.19;;;10.80;99.29
71567;BME280;59403;47.456;19.120;2023-05-01T04:54:20;100714.69;;;10.99;96.93
71567;BME280;59403;47.456;19.120;2023-05-01T04:56:49;100711.81;;;11.27;91.72
71567;BME280;59403;47.456;19.120;2023-05-01T04:59:16;100707.31;;;11.28;89.37
71567;BME280;59403;47.456;19.120;2023-05-01T05:01:43;100712.47;;;11.29;86.95
71567;BME280;59403;47.456;19.120;2023-05-01T05:04:10;100709.06;;;11.37;86.29
71567;BME280;59403;47.456;19.120;2023-05-01T05:06:37;100715.50;;;11.34;85.86
71567;BME280;59403;47.456;19.120;2023-05-01T05:09:04;100710.56;;;11.39;80.27
71567;BME280;59403;47.456;19.120;2023-05-01T05:11:31;100714.69;;;11.60;80.54
71567;BME280;59403;47.456;19.120;2023-05-01T05:13:59;100712.56;;;11.89;80.32
71567;BME280;59403;47.456;19.120;2023-05-01T05:16:26;100714.81;;;11.76;74.26
71567;BME280;59403;47.456;19.120;2023-05-01T05:18:54;100721.34;;;11.81;68.69
71567;BME280;59403;47.456;19.120;2023-05-01T05:21:21;100723.75;;;12.00;68.93
71567;BME280;59403;47.456;19.120;2023-05-01T05:23:48;100721.97;;;12.09;68.30
71567;BME280;59403;47.456;19.120;2023-05-01T05:26:15;100716.69;;;12.17;67.91
71567;BME280;59403;47.456;19.120;2023-05-01T05:28:42;100720.03;;;12.19;68.03
71567;BME280;59403;47.456;19.120;2023-05-01T05:31:10;100715.41;;;12.21;67.46
71567;BME280;59403;47.456;19.120;2023-05-01T05:33:37;100724.41;;;12.36;64.15
71567;BME280;59403;47.456;19.120;2023-05-01T05:36:05;100730.72;;;12.35;63.33
71567;BME280;59403;47.456;19.120;2023-05-01T05:38:32;100728.25;;;12.33;63.15
71567;BME280;59403;47.456;19.120;2023-05-01T05:40:58;100727.56;;;12.39;61.91
71567;BME280;59403;47.456;19.120;2023-05-01T05:43:26;100730.06;;;12.33;58.46
71567;BME280;59403;47.456;19.120;2023-05-01T05:45:55;100727.47;;;12.57;58.99
71567;BME280;59403;47.456;19.120;2023-05-01T05:48:24;100727.38;;;12.83;57.33
71567;BME280;59403;47.456;19.120;2023-05-01T05:50:51;100731.28;;;13.12;55.72
71567;BME280;59403;47.456;19.120;2023-05-01T05:53:18;100731.28;;;13.28;54.41
71567;BME280;59403;47.456;19.120;2023-05-01T05:55:46;100729.78;;;13.42;53.48
71567;BME280;59403;47.456;19.120;2023-05-01T05:58:13;100729.94;;;13.24;50.71
71567;BME280;59403;47.456;19.120;2023-05-01T06:00:44;100724.94;;;13.61;50.63
71567;BME280;59403;47.456;19.120;2023-05-01T06:03:12;100727.78;;;13.60;50.10
71567;BME280;59403;47.456;19.120;2023-05-01T06:05:40;100735.59;;;13.61;49.10
71567;BME280;59403;47.456;19.120;2023-05-01T06:08:08;100729.75;;;13.66;50.16
71567;BME280;59403;47.456;19.120;2023-05-01T06:10:36;100729.59;;;13.76;48.93
71567;BME280;59403;47.456;19.120;2023-05-01T06:13:04;100729.84;;;14.05;49.73
71567;BME280;59403;47.456;19.120;2023-05-01T06:15:31;100735.84;;;14.07;47.06
71567;BME280;59403;47.456;19.120;2023-05-01T06:17:58;100732.16;;;14.16;47.58
71567;BME280;59403;47.456;19.120;2023-05-01T06:20:26;100730.88;;;13.96;47.96
71567;BME280;59403;47.456;19.120;2023-05-01T06:22:54;100733.19;;;13.99;47.07
71567;BME280;59403;47.456;19.120;2023-05-01T06:25:21;100736.75;;;14.38;47.18
71567;BME280;59403;47.456;19.120;2023-05-01T06:27:48;100741.94;;;14.23;46.33
71567;BME280;59403;47.456;19.120;2023-05-01T06:30:15;100738.56;;;14.45;47.64
71567;BME280;59403;47.456;19.120;2023-05-01T06:32:44;100733.66;;;14.57;45.84
71567;BME280;59403;47.456;19.120;2023-05-01T06:35:11;100739.97;;;14.64;46.23
71567;BME280;59403;47.456;19.120;2023-05-01T06:37:38;100739.47;;;14.91;45.60
71567;BME280;59403;47.456;19.120;2023-05-01T06:40:07;100736.03;;;15.05;45.65
71567;BME280;59403;47.456;19.120;2023-05-01T06:42:35;100739.41;;;14.76;45.22
71567;BME280;59403;47.456;19.120;2023-05-01T06:45:02;100736.62;;;14.93;44.75
71567;BME280;59403;47.456;19.120;2023-05-01T06:47:29;100744.16;;;15.34;45.21
71567;BME280;59403;47.456;19.120;2023-05-01T06:49:56;100749.72;;;14.79;43.05
71567;BME280;59403;47.456;19.120;2023-05-01T06:52:23;100748.44;;;15.21;43.48
71567;BME280;59403;47.456;19.120;2023-05-01T06:54:50;100745.37;;;15.01;42.30
71567;BME280;59403;47.456;19.120;2023-05-01T06:57:19;100751.19;;;15.05;41.90
71567;BME280;59403;47.456;19.120;2023-05-01T06:59:46;100746.06;;;15.26;42.73
71567;BME280;59403;47.456;19.120;2023-05-01T07:02:13;100749.06;;;15.00;41.71
71567;BME280;59403;47.456;19.120;2023-05-01T07:04:39;100748.91;;;15.02;42.68
71567;BME280;59403;47.456;19.120;2023-05-01T07:07:08;100751.75;;;15.00;42.57
71567;BME280;59403;47.456;19.120;2023-05-01T07:09:35;100744.97;;;15.20;43.76
71567;BME280;59403;47.456;19.120;2023-05-01T07:12:04;100751.69;;;15.08;42.11
71567;BME280;59403;47.456;19.120;2023-05-01T07:14:33;100743.47;;;15.40;42.87
71567;BME280;59403;47.456;19.120;2023-05-01T07:17:00;100743.94;;;15.44;42.56
71567;BME280;59403;47.456;19.120;2023-05-01T07:19:27;100748.41;;;15.66;42.86
71567;BME280;59403;47.456;19.120;2023-05-01T07:21:54;100750.41;;;15.49;41.67
71567;BME280;59403;47.456;19.120;2023-05-01T07:24:21;100744.84;;;15.73;41.76
71567;BME280;59403;47.456;19.120;2023-05-01T07:26:48;100748.66;;;15.79;42.30
71567;BME280;59403;47.456;19.120;2023-05-01T07:29:19;100748.78;;;16.00;42.04
71567;BME280;59403;47.456;19.120;2023-05-01T07:31:47;100737.72;;;16.47;44.05
71567;BME280;59403;47.456;19.120;2023-05-01T07:34:14;100751.91;;;16.33;41.15
71567;BME280;59403;47.456;19.120;2023-05-01T07:36:45;100749.31;;;16.25;41.59
71567;BME280;59403;47.456;19.120;2023-05-01T07:39:12;100746.75;;;16.31;41.77
71567;BME280;59403;47.456;19.120;2023-05-01T07:41:39;100748.78;;;16.00;41.57
71567;BME280;59403;47.456;19.120;2023-05-01T07:44:06;100760.09;;;16.31;41.49
71567;BME280;59403;47.456;19.120;2023-05-01T07:46:33;100755.28;;;16.27;41.11
71567;BME280;59403;47.456;19.120;2023-05-01T07:49:02;100754.19;;;16.36;41.85
71567;BME280;59403;47.456;19.120;2023-05-01T07:51:29;100756.78;;;16.58;41.02
71567;BME280;59403;47.456;19.120;2023-05-01T07:53:56;100748.56;;;16.74;41.64
71567;BME280;59403;47.456;19.120;2023-05-01T07:56:23;100751.84;;;17.12;41.16
71567;BME280;59403;47.456;19.120;2023-05-01T07:58:50;100753.25;;;16.72;40.32
71567;BME280;59403;47.456;19.120;2023-05-01T08:01:17;100745.59;;;17.05;39.54
71567;BME280;59403;47.456;19.120;2023-05-01T08:03:43;100745.97;;;16.66;40.06
71567;BME280;59403;47.456;19.120;2023-05-01T08:06:12;100742.16;;;17.11;39.86
71567;BME280;59403;47.456;19.120;2023-05-01T08:08:39;100746.53;;;16.97;40.01
71567;BME280;59403;47.456;19.120;2023-05-01T08:11:06;100754.66;;;17.25;39.67
71567;BME280;59403;47.456;19.120;2023-05-01T08:13:32;100752.69;;;17.13;39.35
71567;BME280;59403;47.456;19.120;2023-05-01T08:16:00;100760.19;;;17.24;39.74
71567;BME280;59403;47.456;19.120;2023-05-01T08:18:27;100753.38;;;17.21;40.08
71567;BME280;59403;47.456;19.120;2023-05-01T08:20:54;100756.97;;;17.49;39.58
71567;BME280;59403;47.456;19.120;2023-05-01T08:23:22;100752.75;;;17.89;40.68
71567;BME280;59403;47.456;19.120;2023-05-01T08:25:50;100750.38;;;17.73;39.01
71567;BME280;59403;47.456;19.120;2023-05-01T08:28:17;100750.78;;;17.49;37.62
71567;BME280;59403;47.456;19.120;2023-05-01T08:30:45;100746.91;;;18.06;39.16
71567;BME280;59403;47.456;19.120;2023-05-01T08:33:13;100740.53;;;17.80;38.59
71567;BME280;59403;47.456;19.120;2023-05-01T08:35:40;100743.41;;;17.78;39.48
71567;BME280;59403;47.456;19.120;2023-05-01T08:38:07;100748.59;;;17.86;37.84
71567;BME280;59403;47.456;19.120;2023-05-01T08:40:37;100740.84;;;18.26;38.75
71567;BME280;59403;47.456;19.120;2023-05-01T08:43:04;100739.75;;;18.20;38.24
71567;BME280;59403;47.456;19.120;2023-05-01T08:45:33;100737.94;;;18.61;38.10
71567;BME280;59403;47.456;19.120;2023-05-01T08:48:04;100740.09;;;18.38;37.65
71567;BME280;59403;47.456;19.120;2023-05-01T08:50:33;100730.84;;;18.13;37.57
71567;BME280;59403;47.456;19.120;2023-05-01T08:53:02;100741.75;;;18.05;37.60
71567;BME280;59403;47.456;19.120;2023-05-01T08:55:30;100733.34;;;18.14;38.09
71567;BME280;59403;47.456;19.120;2023-05-01T08:58:00;100728.00;;;18.55;37.14
71567;BME280;59403;47.456;19.120;2023-05-01T09:00:28;100726.47;;;18.40;37.27
71567;BME280;59403;47.456;19.120;2023-05-01T09:02:59;100736.28;;;18.26;37.62
71567;BME280;59403;47.456;19.120;2023-05-01T09:05:31;100734.16;;;18.08;37.39
71567;BME280;59403;47.456;19.120;2023-05-01T09:07:58;100730.94;;;18.67;36.67
71567;BME280;59403;47.456;19.120;2023-05-01T09:10:26;100735.91;;;18.70;35.96
71567;BME280;59403;47.456;19.120;2023-05-01T09:12:56;100731.44;;;18.96;37.77
71567;BME280;59403;47.456;19.120;2023-05-01T09:15:26;100722.81;;;19.14;36.44
71567;BME280;59403;47.456;19.120;2023-05-01T09:17:53;100727.81;;;19.30;36.21
71567;BME280;59403;47.456;19.120;2023-05-01T09:20:21;100720.75;;;19.29;35.78
71567;BME280;59403;47.456;19.120;2023-05-01T09:22:49;100721.75;;;18.95;35.95
71567;BME280;59403;47.456;19.120;2023-05-01T09:25:16;100720.91;;;19.01;35.09
71567;BME280;59403;47.456;19.120;2023-05-01T09:27:43;100722.97;;;18.93;35.59
71567;BME280;59403;47.456;19.120;2023-05-01T09:30:30;100724.28;;;18.56;36.47
71567;BME280;59403;47.456;19.120;2023-05-01T09:33:07;100719.25;;;18.94;35.99
71567;BME280;59403;47.456;19.120;2023-05-01T09:35:51;100721.97;;;19.13;35.55
71567;BME280;59403;47.456;19.120;2023-05-01T09:38:19;100726.91;;;19.16;35.18
71567;BME280;59403;47.456;19.120;2023-05-01T09:40:47;100726.28;;;19.08;36.61
71567;BME280;59403;47.456;19.120;2023-05-01T09:43:23;100719.53;;;19.71;36.17
71567;BME280;59403;47.456;19.120;2023-05-01T09:46:05;100717.69;;;19.32;34.29
71567;BME280;59403;47.456;19.120;2023-05-01T09:48:34;100719.97;;;19.87;34.52
71567;BME280;59403;47.456;19.120;2023-05-01T09:51:18;100710.88;;;19.75;34.59
71567;BME280;59403;47.456;19.120;2023-05-01T09:53:45;100710.84;;;20.01;33.99
71567;BME280;59403;47.456;19.120;2023-05-01T09:56:12;100706.91;;;19.91;35.08
71567;BME280;59403;47.456;19.120;2023-05-01T09:58:40;100705.28;;;19.77;34.82
71567;BME280;59403;47.456;19.120;2023-05-01T10:01:08;100699.41;;;20.12;35.31
71567;BME280;59403;47.456;19.120;2023-05-01T10:03:35;100705.03;;;19.91;33.92
71567;BME280;59403;47.456;19.120;2023-05-01T10:06:03;100706.91;;;19.97;34.32
71567;BME280;59403;47.456;19.120;2023-05-01T10:08:46;100702.75;;;20.08;35.07
71567;BME280;59403;47.456;19.120;2023-05-01T10:11:13;100694.66;;;20.27;35.23
71567;BME280;59403;47.456;19.120;2023-05-01T10:13:40;100693.56;;;20.79;35.29
71567;BME280;59403;47.456;19.120;2023-05-01T10:16:27;100694.37;;;20.86;34.42
71567;BME280;59403;47.456;19.120;2023-05-01T10:18:55;100688.16;;;20.86;33.76
71567;BME280;59403;47.456;19.120;2023-05-01T10:21:22;100685.31;;;20.74;34.02
71567;BME280;59403;47.456;19.120;2023-05-01T10:23:50;100681.69;;;20.87;35.10
71567;BME280;59403;47.456;19.120;2023-05-01T10:26:17;100685.00;;;20.89;34.06
71567;BME280;59403;47.456;19.120;2023-05-01T10:28:46;100676.75;;;20.46;33.86
71567;BME280;59403;47.456;19.120;2023-05-01T10:31:15;100673.84;;;20.92;34.93
71567;BME280;59403;47.456;19.120;2023-05-01T10:33:42;100665.81;;;20.79;34.49
71567;BME280;59403;47.456;19.120;2023-05-01T10:36:13;100663.53;;;20.38;34.68
71567;BME280;59403;47.456;19.120;2023-05-01T10:38:42;100662.38;;;20.65;35.85
71567;BME280;59403;47.456;19.120;2023-05-01T10:41:13;100664.69;;;21.24;35.54
71567;BME280;59403;47.456;19.120;2023-05-01T10:43:40;100658.19;;;20.76;35.06
71567;BME280;59403;47.456;19.120;2023-05-01T10:46:29;100659.22;;;21.12;34.59
71567;BME280;59403;47.456;19.120;2023-05-01T10:48:56;100659.47;;;21.29;35.44
71567;BME280;59403;47.456;19.120;2023-05-01T10:51:24;100644.84;;;20.56;33.88
71567;BME280;59403;47.456;19.120;2023-05-01T10:54:21;100646.13;;;20.85;34.91
71567;BME280;59403;47.456;19.120;2023-05-01T10:56:52;100643.03;;;20.81;35.76
71567;BME280;59403;47.456;19.120;2023-05-01T10:59:19;100644.78;;;20.94;36.23
71567;BME280;59403;47.456;19.120;2023-05-01T11:01:48;100639.03;;;21.21;35.73
71567;BME280;59403;47.456;19.120;2023-05-01T11:04:47;100639.63;;;21.48;35.25
71567;BME280;59403;47.456;19.120;2023-05-01T11:07:16;100639.78;;;20.66;34.98
71567;BME280;59403;47.456;19.120;2023-05-01T11:09:44;100644.84;;;21.18;34.86
71567;BME280;59403;47.456;19.120;2023-05-01T11:12:12;100640.84;;;21.27;34.59
71567;BME280;59403;47.456;19.120;2023-05-01T11:15:04;100642.59;;;21.40;34.70
71567;BME280;59403;47.456;19.120;2023-05-01T11:17:46;100622.78;;;21.71;36.01
71567;BME280;59403;47.456;19.120;2023-05-01T11:20:47;100632.03;;;21.14;35.17
71567;BME280;59403;47.456;19.120;2023-05-01T11:23:18;100640.81;;;21.52;34.66
71567;BME280;59403;47.456;19.120;2023-05-01T11:25:46;100632.66;;;21.59;34.91
71567;BME280;59403;47.456;19.120;2023-05-01T11:28:18;100625.66;;;21.33;34.47
71567;BME280;59403;47.456;19.120;2023-05-01T11:30:49;100625.03;;;21.80;34.56
71567;BME280;59403;47.456;19.120;2023-05-01T11:33:23;100618.97;;;21.17;34.58
71567;BME280;59403;47.456;19.120;2023-05-01T11:36:01;100618.66;;;21.01;35.10
71567;BME280;59403;47.456;19.120;2023-05-01T11:38:29;100622.63;;;20.67;34.72
71567;BME280;59403;47.456;19.120;2023-05-01T11:41:01;100615.66;;;21.58;34.65
71567;BME280;59403;47.456;19.120;2023-05-01T11:43:29;100598.94;;;21.92;34.33
71567;BME280;59403;47.456;19.120;2023-05-01T11:45:56;100603.06;;;21.95;34.83
71567;BME280;59403;47.456;19.120;2023-05-01T11:48:30;100606.97;;;21.13;34.93
71567;BME280;59403;47.456;19.120;2023-05-01T11:50:57;100598.34;;;21.90;33.48
71567;BME280;59403;47.456;19.120;2023-05-01T11:53:23;100601.00;;;22.08;34.91
71567;BME280;59403;47.456;19.120;2023-05-01T11:55:50;100592.66;;;22.28;34.36
71567;BME280;59403;47.456;19.120;2023-05-01T11:58:29;100599.06;;;22.45;34.03
71567;BME280;59403;47.456;19.120;2023-05-01T12:00:57;100595.75;;;22.61;35.43
71567;BME280;59403;47.456;19.120;2023-05-01T12:03:24;100592.31;;;22.24;33.97
71567;BME280;59403;47.456;19.120;2023-05-01T12:05:52;100596.53;;;22.50;33.99
71567;BME280;59403;47.456;19.120;2023-05-01T12:08:20;100592.53;;;22.71;34.11
71567;BME280;59403;47.456;19.120;2023-05-01T12:10:49;100597.94;;;22.82;34.25
71567;BME280;59403;47.456;19.120;2023-05-01T12:13:17;100589.28;;;22.92;34.02
71567;BME280;59403;47.456;19.120;2023-05-01T12:15:46;100584.22;;;22.95;35.57
71567;BME280;59403;47.456;19.120;2023-05-01T12:18:28;100577.22;;;22.65;34.31
71567;BME280;59403;47.456;19.120;2023-05-01T12:20:58;100572.97;;;22.27;33.36
71567;BME280;59403;47.456;19.120;2023-05-01T12:23:33;100583.50;;;21.99;34.43
71567;BME280;59403;47.456;19.120;2023-05-01T12:26:14;100586.25;;;22.11;34.27
71567;BME280;59403;47.456;19.120;2023-05-01T12:28:52;100575.38;;;22.17;34.90
71567;BME280;59403;47.456;19.120;2023-05-01T12:31:20;100568.25;;;22.23;34.58
71567;BME280;59403;47.456;19.120;2023-05-01T12:33:52;100562.34;;;22.14;35.34
71567;BME280;59403;47.456;19.120;2023-05-01T12:36:21;100568.00;;;21.77;35.05
71567;BME280;59403;47.456;19.120;2023-05-01T12:38:56;100552.22;;;21.80;35.61
71567;BME280;59403;47.456;19.120;2023-05-01T12:41:32;100571.28;;;22.15;33.97
71567;BME280;59403;47.456;19.120;2023-05-01T12:43:59;100552.88;;;22.53;34.86
71567;BME280;59403;47.456;19.120;2023-05-01T12:46:26;100560.62;;;22.20;34.59
71567;BME280;59403;47.456;19.120;2023-05-01T12:48:53;100556.63;;;22.22;34.89
71567;BME280;59403;47.456;19.120;2023-05-01T12:51:22;100552.44;;;22.08;34.86
71567;BME280;59403;47.456;19.120;2023-05-01T12:53:49;100550.44;;;22.22;34.96
71567;BME280;59403;47.456;19.120;2023-05-01T12:56:22;100544.16;;;22.10;34.70
71567;BME280;59403;47.456;19.120;2023-05-01T12:58:52;100537.06;;;22.27;34.21
71567;BME280;59403;47.456;19.120;2023-05-01T13:01:23;100533.44;;;22.33;35.26
71567;BME280;59403;47.456;19.120;2023-05-01T13:03:52;100536.72;;;22.35;34.90
71567;BME280;59403;47.456;19.120;2023-05-01T13:06:30;100536.22;;;22.26;34.85
71567;BME280;59403;47.456;19.120;2023-05-01T13:09:06;100534.50;;;22.32;34.76
71567;BME280;59403;47.456;19.120;2023-05-01T13:11:33;100529.06;;;22.20;36.26
71567;BME280;59403;47.456;19.120;2023-05-01T13:14:06;100529.13;;;22.14;34.80
71567;BME280;59403;47.456;19.120;2023-05-01T13:16:33;100525.34;;;22.33;34.59
71567;BME280;59403;47.456;19.120;2023-05-01T13:19:08;100522.75;;;22.26;34.89
71567;BME280;59403;47.456;19.120;2023-05-01T13:21:45;100522.34;;;22.41;35.16
71567;BME280;59403;47.456;19.120;2023-05-01T13:24:12;100519.63;;;22.41;33.56
71567;BME280;59403;47.456;19.120;2023-05-01T13:26:39;100520.75;;;22.22;34.57
71567;BME280;59403;47.456;19.120;2023-05-01T13:29:13;100511.09;;;22.14;35.00
71567;BME280;59403;47.456;19.120;2023-05-01T13:31:42;100512.19;;;22.25;35.02
71567;BME280;59403;47.456;19.120;2023-05-01T13:34:09;100510.84;;;21.68;34.14
71567;BME280;59403;47.456;19.120;2023-05-01T13:36:39;100511.31;;;21.83;35.13
71567;BME280;59403;47.456;19.120;2023-05-01T13:39:05;100510.63;;;21.70;34.76
71567;BME280;59403;47.456;19.120;2023-05-01T13:41:32;100505.69;;;21.49;35.02
71567;BME280;59403;47.456;19.120;2023-05-01T13:44:00;100505.88;;;21.65;34.80
71567;BME280;59403;47.456;19.120;2023-05-01T13:46:27;100498.63;;;21.48;35.00
71567;BME280;59403;47.456;19.120;2023-05-01T13:48:54;100498.72;;;21.59;36.76
71567;BME280;59403;47.456;19.120;2023-05-01T13:51:25;100486.31;;;21.40;35.94
71567;BME280;59403;47.456;19.120;2023-05-01T13:53:54;100487.47;;;21.44;35.20
71567;BME280;59403;47.456;19.120;2023-05-01T13:56:21;100490.91;;;21.51;34.88
71567;BME280;59403;47.456;19.120;2023-05-01T13:58:48;100496.72;;;21.36;34.71
71567;BME280;59403;47.456;19.120;2023-05-01T14:01:17;100484.16;;;21.06;35.09